createdAt,value
2018-06-24T00:01:55.741Z,11.55
2018-06-24T00:04:24.039Z,12.13
2018-06-24T00:06:52.017Z,12.88
2018-06-24T00:09:20.269Z,12.88
2018-06-24T00:11:48.480Z,11.53
2018-06-24T00:14:16.772Z,12.53
2018-06-24T00:16:45.405Z,11.78
2018-06-24T00:19:13.611Z,13.88
2018-06-24T00:21:42.398Z,12.30
2018-06-24T00:24:10.897Z,12.30
2018-06-24T00:26:39.140Z,13.50
2018-06-24T00:29:07.415Z,13.00
2018-06-24T00:31:36.173Z,11.90
2018-06-24T00:34:04.382Z,12.23
2018-06-24T00:36:32.633Z,12.05
2018-06-24T00:39:00.863Z,11.33
2018-06-24T00:41:28.838Z,11.33
2018-06-24T00:43:57.169Z,11.33
2018-06-24T00:46:25.445Z,11.48
2018-06-24T00:48:53.557Z,11.18
2018-06-24T00:51:21.530Z,11.70
2018-06-24T00:53:50.179Z,11.00
2018-06-24T00:56:18.525Z,11.55
2018-06-24T00:58:46.852Z,10.82
2018-06-24T01:01:15.070Z,10.28
2018-06-24T01:03:43.347Z,10.60
2018-06-24T01:06:11.632Z,10.63
2018-06-24T01:08:39.955Z,11.08
2018-06-24T01:11:08.196Z,10.95
2018-06-24T01:13:36.164Z,10.80
2018-06-24T01:16:04.154Z,12.30
2018-06-24T01:18:32.361Z,10.75
2018-06-24T01:21:00.700Z,11.20
2018-06-24T01:23:28.941Z,11.03
2018-06-24T01:25:57.169Z,10.93
2018-06-24T01:28:25.466Z,11.60
2018-06-24T01:30:53.791Z,12.65
2018-06-24T01:33:21.837Z,11.20
2018-06-24T01:35:50.085Z,11.75
2018-06-24T01:38:18.343Z,11.05
2018-06-24T01:40:46.742Z,11.55
2018-06-24T01:43:15.010Z,11.80
2018-06-24T01:45:43.264Z,10.78
2018-06-24T01:48:11.540Z,11.97
2018-06-24T01:50:39.524Z,11.03
2018-06-24T01:53:07.805Z,11.20
2018-06-24T01:55:36.040Z,12.78
2018-06-24T01:58:04.269Z,11.55
2018-06-24T02:00:32.868Z,11.00
2018-06-24T02:03:01.355Z,11.80
2018-06-24T02:05:29.573Z,11.53
2018-06-24T02:07:57.806Z,11.93
2018-06-24T02:10:26.075Z,12.58
2018-06-24T02:12:54.478Z,11.68
2018-06-24T02:15:22.726Z,12.90
2018-06-24T02:17:50.943Z,12.18
2018-06-24T02:20:19.182Z,13.00
2018-06-24T02:22:47.410Z,13.80
2018-06-24T02:25:15.634Z,12.73
2018-06-24T02:27:43.658Z,13.53
2018-06-24T02:30:11.641Z,14.05
2018-06-24T02:32:39.854Z,13.53
2018-06-24T02:35:08.081Z,13.30
2018-06-24T02:37:36.423Z,14.18
2018-06-24T02:40:04.741Z,13.75
2018-06-24T02:42:32.981Z,13.93
2018-06-24T02:45:01.252Z,15.08
2018-06-24T02:47:29.862Z,12.88
2018-06-24T02:49:58.123Z,14.03
2018-06-24T02:52:26.376Z,12.93
2018-06-24T02:54:54.653Z,13.25
2018-06-24T02:57:22.893Z,15.58
2018-06-24T02:59:51.211Z,14.47
2018-06-24T03:02:22.746Z,13.25
2018-06-24T03:04:51.023Z,14.45
2018-06-24T03:07:19.238Z,14.83
2018-06-24T03:09:47.966Z,13.88
2018-06-24T03:12:16.190Z,14.63
2018-06-24T03:14:44.455Z,15.05
2018-06-24T03:17:12.742Z,15.68
2018-06-24T03:19:40.977Z,16.23
2018-06-24T03:22:08.969Z,15.90
2018-06-24T03:24:37.000Z,15.55
2018-06-24T03:27:05.448Z,14.85
2018-06-24T03:29:33.826Z,15.35
2018-06-24T03:32:02.211Z,15.58
2018-06-24T03:34:30.433Z,15.38
2018-06-24T03:36:58.652Z,14.10
2018-06-24T03:39:26.889Z,14.58
2018-06-24T03:41:55.153Z,14.43
2018-06-24T03:44:23.430Z,14.18
2018-06-24T03:46:51.470Z,13.75
2018-06-24T03:49:19.699Z,14.05
2018-06-24T03:51:47.994Z,13.25
2018-06-24T03:54:16.780Z,12.07
2018-06-24T03:56:44.751Z,10.95
2018-06-24T03:59:13.011Z,11.55
2018-06-24T04:01:41.238Z,11.70
2018-06-24T04:04:09.594Z,10.15
2018-06-24T04:06:37.807Z,9.03
2018-06-24T04:09:07.042Z,9.23
2018-06-24T04:11:35.314Z,11.45
2018-06-24T04:14:03.553Z,9.83
2018-06-24T04:16:31.850Z,9.40
2018-06-24T04:19:00.120Z,10.00
2018-06-24T04:21:28.372Z,10.53
2018-06-24T04:23:56.784Z,10.55
2018-06-24T04:26:25.032Z,10.78
2018-06-24T04:28:53.265Z,10.43
2018-06-24T04:31:21.617Z,10.18
2018-06-24T04:33:49.837Z,9.25
2018-06-24T04:36:18.051Z,9.13
2018-06-24T04:38:46.345Z,9.53
2018-06-24T04:41:14.622Z,9.25
2018-06-24T04:43:42.945Z,9.23
2018-06-24T04:46:11.262Z,8.75
2018-06-24T04:48:39.549Z,8.50
2018-06-24T04:51:07.841Z,8.40
2018-06-24T04:53:36.057Z,8.78
2018-06-24T04:56:04.477Z,8.43
2018-06-24T04:58:32.726Z,7.80
2018-06-24T05:01:00.977Z,7.70
2018-06-24T05:03:29.189Z,7.03
2018-06-24T05:05:57.397Z,7.97
2018-06-24T05:08:25.653Z,7.20
2018-06-24T05:10:54.254Z,7.55
2018-06-24T05:13:22.989Z,7.22
2018-06-24T05:15:51.241Z,7.50
2018-06-24T05:18:19.477Z,7.60
2018-06-24T05:20:47.765Z,7.20
2018-06-24T05:23:16.077Z,7.55
2018-06-24T05:25:44.326Z,6.58
2018-06-24T05:28:12.610Z,7.45
2018-06-24T05:30:40.807Z,6.65
2018-06-24T05:33:09.034Z,6.45
2018-06-24T05:35:37.293Z,6.87
2018-06-24T05:38:05.523Z,7.00
2018-06-24T05:40:33.753Z,6.03
2018-06-24T05:43:02.106Z,6.30
2018-06-24T05:45:30.290Z,6.87
2018-06-24T05:47:58.565Z,6.53
2018-06-24T05:50:26.797Z,6.33
2018-06-24T05:52:55.013Z,6.00
2018-06-24T05:55:23.245Z,5.60
2018-06-24T05:57:51.545Z,5.40
2018-06-24T06:00:19.819Z,5.40
2018-06-24T06:02:48.089Z,6.12
2018-06-24T06:05:16.378Z,5.60
2018-06-24T06:07:44.642Z,5.40
2018-06-24T06:10:12.919Z,5.50
2018-06-24T06:12:41.170Z,5.00
2018-06-24T06:15:09.460Z,5.10
2018-06-24T06:17:37.778Z,5.67
2018-06-24T06:20:07.390Z,4.50
2018-06-24T06:22:35.588Z,4.10
2018-06-24T06:25:04.189Z,4.30
2018-06-24T06:27:32.458Z,4.63
2018-06-24T06:30:00.727Z,4.70
2018-06-24T06:32:29.425Z,4.10
2018-06-24T06:34:57.712Z,4.23
2018-06-24T06:37:25.942Z,4.27
2018-06-24T06:39:54.590Z,3.60
2018-06-24T06:42:22.789Z,3.30
2018-06-24T06:44:51.107Z,4.00
2018-06-24T06:47:19.338Z,3.57
2018-06-24T06:49:47.543Z,3.63
2018-06-24T06:52:15.980Z,4.93
2018-06-24T06:54:44.241Z,3.50
2018-06-24T06:57:12.501Z,3.70
2018-06-24T06:59:41.827Z,3.73
2018-06-24T07:02:10.229Z,3.37
2018-06-24T07:04:38.496Z,3.30
2018-06-24T07:07:06.870Z,3.50
2018-06-24T07:09:34.909Z,3.07
2018-06-24T07:12:03.540Z,2.67
2018-06-24T07:14:31.809Z,2.87
2018-06-24T07:17:00.110Z,2.43
2018-06-24T07:19:28.411Z,2.57
2018-06-24T07:21:56.675Z,3.10
2018-06-24T07:24:25.018Z,2.20
2018-06-24T07:26:53.249Z,2.40
2018-06-24T07:29:21.526Z,2.10
2018-06-24T07:31:49.790Z,2.63
2018-06-24T07:34:18.022Z,2.57
2018-06-24T07:36:46.266Z,2.43
2018-06-24T07:39:14.719Z,2.83
2018-06-24T07:41:43.007Z,2.80
2018-06-24T07:44:11.337Z,2.70
2018-06-24T07:46:39.557Z,3.20
2018-06-24T07:49:07.851Z,3.47
2018-06-24T07:51:36.145Z,3.83
2018-06-24T07:54:04.456Z,3.30
2018-06-24T07:56:32.809Z,3.40
2018-06-24T07:59:01.094Z,3.33
2018-06-24T08:01:29.356Z,3.33
2018-06-24T08:03:57.777Z,3.10
2018-06-24T08:06:26.029Z,3.00
2018-06-24T08:08:54.240Z,3.70
2018-06-24T08:11:23.171Z,2.97
2018-06-24T08:13:51.297Z,3.20
2018-06-24T08:16:19.550Z,2.80
2018-06-24T08:18:47.566Z,3.03
2018-06-24T08:21:15.864Z,3.07
2018-06-24T08:23:44.202Z,2.93
2018-06-24T08:26:12.453Z,3.07
2018-06-24T08:28:40.701Z,3.10
2018-06-24T08:31:09.276Z,2.60
2018-06-24T08:33:37.285Z,3.13
2018-06-24T08:36:05.570Z,2.53
2018-06-24T08:38:33.838Z,3.07
2018-06-24T08:41:02.134Z,2.27
2018-06-24T08:43:30.391Z,2.63
2018-06-24T08:45:58.761Z,2.80
2018-06-24T08:48:27.049Z,3.00
2018-06-24T08:50:55.327Z,2.70
2018-06-24T08:53:23.634Z,2.90
2018-06-24T08:55:51.989Z,3.17
2018-06-24T08:58:20.248Z,3.27
2018-06-24T09:00:48.533Z,2.80
2018-06-24T09:03:16.823Z,2.83
2018-06-24T09:05:45.153Z,3.07
2018-06-24T09:08:13.422Z,2.87
2018-06-24T09:10:41.633Z,2.30
2018-06-24T09:13:10.026Z,2.80
2018-06-24T09:15:38.419Z,2.77
2018-06-24T09:18:06.598Z,3.17
2018-06-24T09:20:34.896Z,3.33
2018-06-24T09:23:03.118Z,3.23
2018-06-24T09:25:31.321Z,2.90
2018-06-24T09:27:59.926Z,3.50
2018-06-24T09:30:28.239Z,3.10
2018-06-24T09:32:56.481Z,3.60
2018-06-24T09:35:24.750Z,3.60
2018-06-24T09:37:52.986Z,3.50
2018-06-24T09:40:21.244Z,4.30
2018-06-24T09:42:49.527Z,3.10
2018-06-24T09:45:17.742Z,3.60
2018-06-24T09:47:45.989Z,2.97
2018-06-24T09:50:14.245Z,3.20
2018-06-24T09:52:42.465Z,3.10
2018-06-24T09:55:10.717Z,2.87
2018-06-24T09:57:39.625Z,2.63
2018-06-24T10:00:12.097Z,2.80
2018-06-24T10:02:40.843Z,2.50
2018-06-24T10:05:09.151Z,2.77
2018-06-24T10:07:37.373Z,2.83
2018-06-24T10:10:05.613Z,2.50
2018-06-24T10:12:33.891Z,2.53
2018-06-24T10:15:02.201Z,2.70
2018-06-24T10:17:30.542Z,3.23
2018-06-24T10:19:58.815Z,2.67
2018-06-24T10:22:27.045Z,3.17
2018-06-24T10:24:55.410Z,2.87
2018-06-24T10:27:23.644Z,2.23
2018-06-24T10:29:51.988Z,2.60
2018-06-24T10:32:20.304Z,2.27
2018-06-24T10:34:48.343Z,2.40
2018-06-24T10:37:16.372Z,2.63
2018-06-24T10:39:44.489Z,2.90
2018-06-24T10:42:12.538Z,2.00
2018-06-24T10:44:41.000Z,2.00
2018-06-24T10:47:09.113Z,2.00
2018-06-24T10:49:37.147Z,1.93
2018-06-24T10:52:05.253Z,1.90
2018-06-24T10:54:33.306Z,1.80
2018-06-24T10:57:01.322Z,2.10
2018-06-24T10:59:29.727Z,1.93
2018-06-24T11:01:57.793Z,1.97
2018-06-24T11:04:25.805Z,2.00
2018-06-24T11:06:53.933Z,2.00
2018-06-24T11:09:21.995Z,2.00
2018-06-24T11:11:50.088Z,2.07
2018-06-24T11:14:18.155Z,2.30
2018-06-24T11:16:46.241Z,1.93
2018-06-24T11:19:14.305Z,2.30
2018-06-24T11:21:42.404Z,1.90
2018-06-24T11:24:10.414Z,2.30
2018-06-24T11:26:38.519Z,1.87
2018-06-24T11:29:06.634Z,2.30
2018-06-24T11:31:34.721Z,2.40
2018-06-24T11:34:02.805Z,2.37
2018-06-24T11:36:30.837Z,2.10
2018-06-24T11:38:58.913Z,2.13
2018-06-24T11:41:26.945Z,1.83
2018-06-24T11:43:54.989Z,1.87
2018-06-24T11:46:23.025Z,2.10
2018-06-24T11:48:51.077Z,2.30
2018-06-24T11:51:19.402Z,2.17
2018-06-24T11:53:47.554Z,2.40
2018-06-24T11:56:15.605Z,2.50
2018-06-24T11:58:43.634Z,2.03
2018-06-24T12:01:11.701Z,2.03
2018-06-24T12:03:39.766Z,2.10
2018-06-24T12:06:08.113Z,2.40
2018-06-24T12:08:36.242Z,2.20
2018-06-24T12:11:04.283Z,2.43
2018-06-24T12:13:32.316Z,2.60
2018-06-24T12:16:00.320Z,2.70
2018-06-24T12:18:28.356Z,2.53
2018-06-24T12:20:56.410Z,2.57
2018-06-24T12:23:24.417Z,2.70
2018-06-24T12:25:52.536Z,1.97
2018-06-24T12:28:20.838Z,2.57
2018-06-24T12:30:48.958Z,2.40
2018-06-24T12:33:16.961Z,2.67
2018-06-24T12:35:45.007Z,3.07
2018-06-24T12:38:13.113Z,2.53
2018-06-24T12:40:41.117Z,2.40
2018-06-24T12:43:09.201Z,2.50
2018-06-24T12:45:37.210Z,2.20
2018-06-24T12:48:05.264Z,2.70
2018-06-24T12:50:33.343Z,2.93
2018-06-24T12:53:01.393Z,2.80
2018-06-24T12:55:29.414Z,2.83
2018-06-24T12:57:57.527Z,2.47
2018-06-24T13:00:26.312Z,3.40
2018-06-24T13:02:53.785Z,2.57
2018-06-24T13:05:21.893Z,2.50
2018-06-24T13:07:49.920Z,2.90
2018-06-24T13:10:17.937Z,3.50
2018-06-24T13:12:46.078Z,3.40
2018-06-24T13:15:14.098Z,2.43
2018-06-24T13:17:42.116Z,2.00
2018-06-24T13:20:10.189Z,2.30
2018-06-24T13:22:38.483Z,2.47
2018-06-24T13:25:06.552Z,2.17
2018-06-24T13:27:34.600Z,2.37
2018-06-24T13:30:02.654Z,2.10
2018-06-24T13:32:30.669Z,2.23
2018-06-24T13:34:58.726Z,2.37
2018-06-24T13:37:26.807Z,2.03
2018-06-24T13:39:54.883Z,2.13
2018-06-24T13:42:22.950Z,2.03
2018-06-24T13:44:50.921Z,2.03
2018-06-24T13:47:18.969Z,1.63
2018-06-24T13:49:47.108Z,2.07
2018-06-24T13:52:15.181Z,1.80
2018-06-24T13:54:43.214Z,2.30
2018-06-24T13:57:11.322Z,1.60
2018-06-24T13:59:39.369Z,1.73
2018-06-24T14:02:07.561Z,2.10
2018-06-24T14:04:35.560Z,2.10
2018-06-24T14:07:03.625Z,2.00
2018-06-24T14:09:31.710Z,2.00
2018-06-24T14:11:59.792Z,2.00
2018-06-24T14:14:27.858Z,2.63
2018-06-24T14:16:56.525Z,2.60
2018-06-24T14:19:24.548Z,2.40
2018-06-24T14:21:52.636Z,3.20
2018-06-24T14:24:21.013Z,2.50
2018-06-24T14:26:49.055Z,2.73
2018-06-24T14:29:17.109Z,2.50
2018-06-24T14:31:45.185Z,2.60
2018-06-24T14:34:13.214Z,2.80
2018-06-24T14:36:41.247Z,2.90
2018-06-24T14:39:10.388Z,3.10
2018-06-24T14:41:38.598Z,2.30
2018-06-24T14:44:07.782Z,2.80
2018-06-24T14:46:35.835Z,2.10
2018-06-24T14:49:03.887Z,2.30
2018-06-24T14:51:32.005Z,2.70
2018-06-24T14:54:00.193Z,2.83
2018-06-24T14:56:28.220Z,2.67
2018-06-24T14:58:56.590Z,2.80
2018-06-24T15:01:24.728Z,2.77
2018-06-24T15:03:52.723Z,2.40
2018-06-24T15:06:20.768Z,2.70
2018-06-24T15:08:48.790Z,2.60
2018-06-24T15:11:16.809Z,2.80
2018-06-24T15:13:44.852Z,3.07
2018-06-24T15:16:12.861Z,2.90
2018-06-24T15:18:40.938Z,2.77
2018-06-24T15:21:09.061Z,2.87
2018-06-24T15:23:37.149Z,3.10
2018-06-24T15:26:05.199Z,2.40
2018-06-24T15:28:33.250Z,2.60
2018-06-24T15:31:01.269Z,2.80
2018-06-24T15:33:29.305Z,3.27
2018-06-24T15:35:57.352Z,3.37
2018-06-24T15:38:25.417Z,3.23
2018-06-24T15:40:53.481Z,3.10
2018-06-24T15:43:22.108Z,3.40
2018-06-24T15:45:50.195Z,3.20
2018-06-24T15:48:18.281Z,3.03
2018-06-24T15:50:46.570Z,2.77
2018-06-24T15:53:14.637Z,3.23
2018-06-24T15:55:42.661Z,3.30
2018-06-24T15:58:10.765Z,3.40
2018-06-24T16:00:38.840Z,3.40
2018-06-24T16:03:06.871Z,3.63
2018-06-24T16:05:34.907Z,2.83
2018-06-24T16:08:02.908Z,3.03
2018-06-24T16:10:31.010Z,3.50
2018-06-24T16:12:59.117Z,3.23
2018-06-24T16:15:27.148Z,3.47
2018-06-24T16:17:55.218Z,3.10
2018-06-24T16:20:23.346Z,3.00
2018-06-24T16:22:51.344Z,3.17
2018-06-24T16:25:19.356Z,3.20
2018-06-24T16:27:47.482Z,3.97
2018-06-24T16:30:15.549Z,3.33
2018-06-24T16:32:43.938Z,2.87
2018-06-24T16:35:11.998Z,3.10
2018-06-24T16:37:40.000Z,3.20
2018-06-24T16:40:08.109Z,3.27
2018-06-24T16:42:36.167Z,3.63
2018-06-24T16:45:04.201Z,3.00
2018-06-24T16:47:32.276Z,3.27
2018-06-24T16:50:00.345Z,3.27
2018-06-24T16:52:28.358Z,3.00
2018-06-24T16:54:56.373Z,3.13
2018-06-24T16:57:24.398Z,3.60
2018-06-24T16:59:52.798Z,2.80
2018-06-24T17:02:20.801Z,3.60
2018-06-24T17:04:48.813Z,3.20
2018-06-24T17:07:16.852Z,3.20
2018-06-24T17:09:44.881Z,3.30
2018-06-24T17:12:12.941Z,3.27
2018-06-24T17:14:41.049Z,3.00
2018-06-24T17:17:09.096Z,3.37
2018-06-24T17:19:37.600Z,2.97
2018-06-24T17:22:05.674Z,3.47
2018-06-24T17:24:33.721Z,3.20
2018-06-24T17:27:02.107Z,3.40
2018-06-24T17:29:30.150Z,4.00
2018-06-24T17:31:58.160Z,3.23
2018-06-24T17:34:26.201Z,4.00
2018-06-24T17:36:54.413Z,3.20
2018-06-24T17:39:22.475Z,3.57
2018-06-24T17:41:50.581Z,3.60
2018-06-24T17:44:18.597Z,3.40
2018-06-24T17:46:46.652Z,3.80
2018-06-24T17:49:14.718Z,3.80
2018-06-24T17:51:42.874Z,3.53
2018-06-24T17:54:10.901Z,3.40
2018-06-24T17:56:38.967Z,3.33
2018-06-24T17:59:06.983Z,3.73
2018-06-24T18:01:35.088Z,3.13
2018-06-24T18:04:03.169Z,3.60
2018-06-24T18:06:31.169Z,3.90
2018-06-24T18:08:59.237Z,4.10
2018-06-24T18:11:27.271Z,3.83
2018-06-24T18:13:55.284Z,4.00
2018-06-24T18:16:23.322Z,3.63
2018-06-24T18:18:51.421Z,4.50
2018-06-24T18:21:19.487Z,4.10
2018-06-24T18:23:47.536Z,3.70
2018-06-24T18:26:15.581Z,5.00
2018-06-24T18:28:43.609Z,5.20
2018-06-24T18:31:11.720Z,4.70
2018-06-24T18:33:39.745Z,5.20
2018-06-24T18:36:07.898Z,4.60
2018-06-24T18:38:36.037Z,4.90
2018-06-24T18:41:04.112Z,4.37
2018-06-24T18:43:32.142Z,5.83
2018-06-24T18:46:00.298Z,5.20
2018-06-24T18:48:28.353Z,6.27
2018-06-24T18:50:56.409Z,6.10
2018-06-24T18:53:24.417Z,6.60
2018-06-24T18:55:52.501Z,6.37
2018-06-24T18:58:20.582Z,5.63
2018-06-24T19:00:48.600Z,5.20
2018-06-24T19:03:16.755Z,4.40
2018-06-24T19:05:44.886Z,4.67
2018-06-24T19:08:13.076Z,6.30
2018-06-24T19:10:41.094Z,6.33
2018-06-24T19:13:09.166Z,7.30
2018-06-24T19:15:37.369Z,7.60
2018-06-24T19:18:05.901Z,7.73
2018-06-24T19:20:33.986Z,7.10
2018-06-24T19:23:02.428Z,8.13
2018-06-24T19:25:30.517Z,8.07
2018-06-24T19:27:58.549Z,7.77
2018-06-24T19:30:26.584Z,8.80
2018-06-24T19:32:54.829Z,8.00
2018-06-24T19:35:22.933Z,8.77
2018-06-24T19:37:51.137Z,8.20
2018-06-24T19:40:19.298Z,7.93
2018-06-24T19:42:47.321Z,7.60
2018-06-24T19:45:15.455Z,7.93
2018-06-24T19:47:43.532Z,8.53
2018-06-24T19:50:11.578Z,8.90
2018-06-24T19:52:39.915Z,7.43
2018-06-24T19:55:07.938Z,7.83
2018-06-24T19:57:36.026Z,7.80
2018-06-24T20:00:04.293Z,7.73
2018-06-24T20:02:32.296Z,8.50
2018-06-24T20:05:00.318Z,8.13
2018-06-24T20:07:28.864Z,8.77
2018-06-24T20:09:56.900Z,7.83
2018-06-24T20:12:24.967Z,7.70
2018-06-24T20:14:53.029Z,7.43
2018-06-24T20:17:21.162Z,9.37
2018-06-24T20:19:49.268Z,7.63
2018-06-24T20:22:17.337Z,7.50
2018-06-24T20:24:45.384Z,6.67
2018-06-24T20:27:13.456Z,6.83
2018-06-24T20:29:41.525Z,7.40
2018-06-24T20:32:09.549Z,7.83
2018-06-24T20:34:38.096Z,7.30
2018-06-24T20:37:06.200Z,7.20
2018-06-24T20:39:34.569Z,6.80
2018-06-24T20:42:02.598Z,6.80
2018-06-24T20:44:30.637Z,8.07
2018-06-24T20:46:58.694Z,8.07
2018-06-24T20:49:26.729Z,8.90
2018-06-24T20:51:55.639Z,8.37
2018-06-24T20:54:23.644Z,8.43
2018-06-24T20:56:51.695Z,8.40
2018-06-24T20:59:19.716Z,7.73
2018-06-24T21:01:47.754Z,8.20
2018-06-24T21:04:15.822Z,8.90
2018-06-24T21:06:44.170Z,9.00
2018-06-24T21:09:12.461Z,8.90
2018-06-24T21:11:40.789Z,10.60
2018-06-24T21:14:08.893Z,14.03
2018-06-24T21:16:36.949Z,17.40
2018-06-24T21:19:05.095Z,13.57
2018-06-24T21:21:33.261Z,9.40
2018-06-24T21:24:01.331Z,8.43
2018-06-24T21:26:29.397Z,9.47
2018-06-24T21:28:57.752Z,9.30
2018-06-24T21:31:25.873Z,8.07
2018-06-24T21:33:53.887Z,7.40
2018-06-24T21:36:22.318Z,7.50
2018-06-24T21:38:50.321Z,8.20
2018-06-24T21:41:18.382Z,8.40
2018-06-24T21:43:46.787Z,7.30
2018-06-24T21:46:14.817Z,8.17
2018-06-24T21:48:42.825Z,8.50
2018-06-24T21:51:10.860Z,7.10
2018-06-24T21:53:39.177Z,7.40
2018-06-24T21:56:07.266Z,7.47
2018-06-24T21:58:35.290Z,7.63
2018-06-24T22:01:03.307Z,8.37
2018-06-24T22:03:31.361Z,8.50
2018-06-24T22:05:59.425Z,9.30
2018-06-24T22:08:27.441Z,10.00
2018-06-24T22:10:55.495Z,9.60
2018-06-24T22:13:23.512Z,9.27
2018-06-24T22:15:51.535Z,10.33
2018-06-24T22:18:19.653Z,10.57
2018-06-24T22:20:47.830Z,10.80
2018-06-24T22:23:15.926Z,11.07
2018-06-24T22:25:44.875Z,11.20
2018-06-24T22:28:12.923Z,8.73
2018-06-24T22:30:41.096Z,8.10
2018-06-24T22:33:09.107Z,7.07
2018-06-24T22:35:37.149Z,6.20
2018-06-24T22:38:05.485Z,6.50
2018-06-24T22:40:33.506Z,5.93
2018-06-24T22:43:01.581Z,6.90
2018-06-24T22:45:29.622Z,6.50
2018-06-24T22:47:57.645Z,6.80
2018-06-24T22:50:25.717Z,6.73
2018-06-24T22:52:53.817Z,6.97
2018-06-24T22:55:21.833Z,7.30
2018-06-24T22:57:50.149Z,8.27
2018-06-24T23:00:18.282Z,8.47
2018-06-24T23:02:46.653Z,8.10
2018-06-24T23:05:15.899Z,8.50
2018-06-24T23:07:44.717Z,8.77
2018-06-24T23:10:13.225Z,9.93
2018-06-24T23:12:41.293Z,7.90
2018-06-24T23:15:10.489Z,8.10
2018-06-24T23:17:38.861Z,8.23
2018-06-24T23:20:07.785Z,8.47
2018-06-24T23:22:36.049Z,8.90
2018-06-24T23:25:04.453Z,8.47
2018-06-24T23:27:32.481Z,8.70
2018-06-24T23:30:00.509Z,8.77
2018-06-24T23:32:28.677Z,8.73
2018-06-24T23:34:56.701Z,8.70
2018-06-24T23:37:24.793Z,8.23
2018-06-24T23:39:52.868Z,9.68
2018-06-24T23:42:21.266Z,7.60
2018-06-24T23:44:49.416Z,9.50
2018-06-24T23:47:17.550Z,9.10
2018-06-24T23:49:45.576Z,8.20
2018-06-24T23:52:13.645Z,8.90
2018-06-24T23:54:41.651Z,9.33
2018-06-24T23:57:09.741Z,9.60
2018-06-24T23:59:37.777Z,8.17
